Time;durP1;ratioP1;P1;durP2;ratioP2;P2;SDS_P1;SDS_P2;PMS_P1;PMS_P2;Temp;Humidity;BMP_temperature;BMP_pressure;BME280_temperature;BME280_humidity;BME280_pressure;Samples;Min_cycle;Max_cycle;Signal;HPM_P1;HPM_P2
2024/04/11 00:00:09;;;;;;;9.07;4.05;;;8.90;99.90;;;;;;5382689;26;20371;-46
2024/04/11 00:02:34;;;;;;;42.50;22.98;;;8.90;99.90;;;;;;5381035;26;19992;-46
2024/04/11 00:05:00;;;;;;;17.27;10.02;;;8.80;99.90;;;;;;5381489;26;20358;-46
2024/04/11 00:07:25;;;;;;;40.80;19.05;;;8.80;99.90;;;;;;5382459;26;20073;-44
2024/04/11 00:09:51;;;;;;;8.85;4.57;;;8.70;99.90;;;;;;5383151;26;20062;-46
2024/04/11 00:12:16;;;;;;;6.90;3.17;;;8.60;99.90;;;;;;5383159;26;19996;-49
2024/04/11 00:14:44;;;;;;;12.23;3.67;;;8.60;99.90;;;;;;5381913;26;20518;-46
2024/04/11 00:17:10;;;;;;;7.00;3.72;;;8.60;99.90;;;;;;5383160;26;20038;-46
2024/04/11 00:19:36;;;;;;;5.57;2.58;;;8.60;99.90;;;;;;5383408;26;20000;-46
2024/04/11 00:22:01;;;;;;;7.40;3.65;;;8.50;99.90;;;;;;5383706;26;20003;-49
2024/04/11 00:24:27;;;;;;;4.57;3.13;;;8.60;99.90;;;;;;5382796;26;19996;-51
2024/04/11 00:26:52;;;;;;;6.40;2.85;;;8.50;99.90;;;;;;5382793;26;20052;-49
2024/04/11 00:29:18;;;;;;;7.40;3.58;;;8.60;99.90;;;;;;5383933;26;20004;-45
2024/04/11 00:31:44;;;;;;;4.65;3.03;;;8.70;99.90;;;;;;5384223;26;20335;-48
2024/04/11 00:34:23;;;;;;;7.03;3.10;;;8.60;99.90;;;;;;5383488;26;20003;-52
2024/04/11 00:36:53;;;;;;;4.72;2.85;;;8.50;99.90;;;;;;5383952;26;20000;-47
2024/04/11 00:39:19;;;;;;;9.27;3.88;;;8.40;99.90;;;;;;5383479;26;20039;-47
2024/04/11 00:41:47;;;;;;;7.80;3.33;;;8.50;99.90;;;;;;5384353;26;20008;-51
2024/04/11 00:44:16;;;;;;;6.40;3.25;;;8.30;99.90;;;;;;5384100;26;20000;-47
2024/04/11 00:46:44;;;;;;;6.68;3.33;;;8.40;99.90;;;;;;5384351;26;20070;-52
2024/04/11 00:49:10;;;;;;;7.10;3.33;;;8.40;99.90;;;;;;5381829;26;20000;-50
2024/04/11 00:51:36;;;;;;;6.45;3.17;;;8.40;99.90;;;;;;5381851;26;20061;-50
2024/04/11 00:54:02;;;;;;;7.88;4.10;;;8.40;99.90;;;;;;5382278;26;20464;-50
2024/04/11 00:56:28;;;;;;;7.72;3.13;;;8.50;99.90;;;;;;5384160;26;20029;-49
2024/04/11 00:58:54;;;;;;;8.15;4.18;;;8.40;99.90;;;;;;5382001;26;19996;-48
2024/04/11 01:01:20;;;;;;;7.20;3.72;;;8.40;99.90;;;;;;5384653;26;20147;-50
2024/04/11 01:03:46;;;;;;;6.72;2.72;;;8.30;99.90;;;;;;5382768;26;20011;-49
2024/04/11 01:06:13;;;;;;;9.43;2.95;;;8.20;99.90;;;;;;5384252;26;20020;-48
2024/04/11 01:08:38;;;;;;;6.20;2.80;;;8.10;99.90;;;;;;5383098;26;20006;-49
2024/04/11 01:11:04;;;;;;;6.65;2.75;;;8.00;99.90;;;;;;5383729;26;19992;-47
2024/04/11 01:13:29;;;;;;;5.72;2.85;;;7.90;99.90;;;;;;5381672;26;20008;-50
2024/04/11 01:15:57;;;;;;;9.48;3.63;;;7.90;99.90;;;;;;5382130;26;20495;-51
2024/04/11 01:18:25;;;;;;;3.80;2.95;;;7.90;99.90;;;;;;5382586;26;20004;-52
2024/04/11 01:20:51;;;;;;;6.95;3.20;;;7.80;99.90;;;;;;5383588;26;19996;-48
2024/04/11 01:23:17;;;;;;;4.53;2.78;;;7.80;99.90;;;;;;5384220;26;20010;-45
2024/04/11 01:25:43;;;;;;;5.15;2.88;;;7.80;99.90;;;;;;5382416;26;20383;-51
2024/04/11 01:28:09;;;;;;;5.05;3.22;;;7.70;99.90;;;;;;5383618;26;20000;-51
2024/04/11 01:30:35;;;;;;;9.82;3.20;;;7.70;99.90;;;;;;5383493;26;20000;-47
2024/04/11 01:33:00;;;;;;;5.53;2.88;;;7.70;99.90;;;;;;5383508;26;20000;-51
2024/04/11 01:35:27;;;;;;;6.38;2.85;;;7.70;99.90;;;;;;5381909;26;20000;-48
2024/04/11 01:37:53;;;;;;;6.85;2.80;;;7.60;99.90;;;;;;5383421;26;20012;-49
2024/04/11 01:40:19;;;;;;;9.93;2.70;;;7.70;99.90;;;;;;5382270;26;20089;-49
2024/04/11 01:42:44;;;;;;;4.35;2.75;;;7.60;99.90;;;;;;5383558;26;20073;-49
2024/04/11 01:45:10;;;;;;;5.82;2.95;;;7.60;99.90;;;;;;5381511;26;20000;-49
2024/04/11 01:47:38;;;;;;;5.78;4.35;;;7.50;99.90;;;;;;5383305;26;20000;-50
2024/04/11 01:50:05;;;;;;;7.47;3.25;;;7.60;99.90;;;;;;5382063;26;19996;-50
2024/04/11 01:52:30;;;;;;;4.65;2.85;;;7.50;99.90;;;;;;5381364;26;20029;-53
2024/04/11 01:55:00;;;;;;;10.00;3.47;;;7.40;99.90;;;;;;5381630;26;20012;-47
2024/04/11 01:57:26;;;;;;;6.28;3.45;;;7.20;99.90;;;;;;5384227;26;20028;-51
2024/04/11 01:59:53;;;;;;;7.43;3.17;;;6.70;99.90;;;;;;5383434;26;20020;-49
2024/04/11 02:02:19;;;;;;;9.60;4.40;;;7.20;99.90;;;;;;5383463;26;19996;-50
2024/04/11 02:04:44;;;;;;;7.03;3.35;;;7.10;99.90;;;;;;5382908;26;20006;-50
2024/04/11 02:07:10;;;;;;;5.05;3.10;;;7.10;99.90;;;;;;5383382;26;20070;-48
2024/04/11 02:09:35;;;;;;;4.38;3.60;;;7.20;99.90;;;;;;5382867;26;20000;-48
2024/04/11 02:12:01;;;;;;;4.75;2.67;;;7.00;99.90;;;;;;5383328;26;20418;-47
2024/04/11 02:14:27;;;;;;;5.90;3.17;;;7.10;99.90;;;;;;5383246;26;20011;-47
2024/04/11 02:16:54;;;;;;;4.10;2.70;;;6.90;99.90;;;;;;5381626;26;20363;-46
2024/04/11 02:19:20;;;;;;;6.35;2.92;;;7.00;99.90;;;;;;5381747;26;20012;-47
2024/04/11 02:21:46;;;;;;;5.85;2.95;;;7.00;99.90;;;;;;5383828;26;20000;-48
2024/04/11 02:24:16;;;;;;;6.07;2.58;;;7.00;99.90;;;;;;5383883;26;20007;-47
2024/04/11 02:26:44;;;;;;;6.57;3.25;;;6.90;99.90;;;;;;5383582;26;20073;-47
2024/04/11 02:29:11;;;;;;;7.15;3.20;;;7.10;99.90;;;;;;5383240;26;20008;-49
2024/04/11 02:31:36;;;;;;;6.57;3.55;;;7.00;99.90;;;;;;5383740;26;20343;-48
2024/04/11 02:34:02;;;;;;;6.30;3.10;;;7.00;99.90;;;;;;5383012;26;20011;-47
2024/04/11 02:36:29;;;;;;;7.65;3.10;;;7.00;99.90;;;;;;5381368;26;20011;-50
2024/04/11 02:38:56;;;;;;;13.57;3.47;;;7.00;99.90;;;;;;5381055;26;20086;-47
2024/04/11 02:41:22;;;;;;;3.97;2.83;;;7.00;99.90;;;;;;5382834;26;20003;-48
2024/04/11 02:43:48;;;;;;;8.40;3.72;;;7.00;99.90;;;;;;5383433;26;20362;-49
2024/04/11 02:46:16;;;;;;;7.22;3.47;;;6.90;99.90;;;;;;5383787;26;20459;-51
2024/04/11 02:48:43;;;;;;;6.07;3.25;;;6.90;99.90;;;;;;5381134;26;20373;-47
2024/04/11 02:51:08;;;;;;;6.00;3.85;;;6.90;99.90;;;;;;5381380;26;20011;-50
2024/04/11 02:53:34;;;;;;;7.38;3.80;;;6.90;99.90;;;;;;5381261;26;19996;-47
2024/04/11 02:56:00;;;;;;;5.97;3.00;;;6.80;99.90;;;;;;5382041;26;20023;-49
2024/04/11 02:58:27;;;;;;;4.15;3.13;;;6.80;99.90;;;;;;5380896;26;20010;-49
2024/04/11 03:01:04;;;;;;;6.20;3.60;;;6.80;99.90;;;;;;5381000;26;20036;-50
2024/04/11 03:03:32;;;;;;;6.20;3.28;;;6.70;99.90;;;;;;5383679;26;20080;-47
2024/04/11 03:06:31;;;;;;;7.22;3.97;;;6.70;99.90;;;;;;5381488;26;20087;-49
2024/04/11 03:08:56;;;;;;;5.43;3.58;;;6.70;99.90;;;;;;5382556;26;20042;-47
2024/04/11 03:11:23;;;;;;;5.20;3.80;;;6.80;99.90;;;;;;5383359;26;19992;-49
2024/04/11 03:13:50;;;;;;;8.35;3.85;;;6.70;99.90;;;;;;5381532;26;20470;-52
2024/04/11 03:16:15;;;;;;;6.90;3.08;;;6.70;99.90;;;;;;5384003;26;20003;-53
2024/04/11 03:18:41;;;;;;;8.43;3.20;;;6.80;99.90;;;;;;5383523;26;20094;-47
2024/04/11 03:21:07;;;;;;;9.00;2.92;;;6.70;99.90;;;;;;5383553;26;19999;-51
2024/04/11 03:23:33;;;;;;;5.00;3.25;;;6.70;99.90;;;;;;5381767;26;19998;-48
2024/04/11 03:25:59;;;;;;;6.55;3.75;;;6.70;99.90;;;;;;5381723;26;19996;-48
2024/04/11 03:28:26;;;;;;;7.60;4.10;;;6.70;99.90;;;;;;5381290;26;19996;-52
2024/04/11 03:31:04;;;;;;;6.05;3.60;;;6.60;99.90;;;;;;5383021;26;20003;-51
2024/04/11 03:33:30;;;;;;;5.05;3.60;;;6.60;99.90;;;;;;5382996;26;20004;-52
2024/04/11 03:35:57;;;;;;;8.75;3.63;;;6.60;99.90;;;;;;5381712;26;20000;-49
2024/04/11 03:38:27;;;;;;;4.55;3.15;;;6.40;99.90;;;;;;5382841;26;20050;-48
2024/04/11 03:41:04;;;;;;;9.23;3.65;;;6.60;99.90;;;;;;5380663;26;19996;-50
2024/04/11 03:43:31;;;;;;;10.00;3.33;;;6.60;99.90;;;;;;5380960;26;20000;-52
2024/04/11 03:46:05;;;;;;;8.25;3.58;;;6.60;99.90;;;;;;5382806;26;20011;-50
2024/04/11 03:48:31;;;;;;;3.75;3.15;;;6.60;99.90;;;;;;5382037;26;20336;-47
2024/04/11 03:50:56;;;;;;;6.78;3.78;;;6.50;99.90;;;;;;5382103;26;20000;-54
2024/04/11 03:53:22;;;;;;;9.60;3.72;;;6.50;99.90;;;;;;5382926;26;20011;-50
2024/04/11 03:55:48;;;;;;;5.53;3.25;;;6.30;99.90;;;;;;5382003;26;19996;-51
2024/04/11 03:58:18;;;;;;;4.38;3.28;;;6.40;99.90;;;;;;5380738;26;20333;-51
2024/04/11 04:00:45;;;;;;;6.18;3.58;;;6.30;99.90;;;;;;5382133;26;20008;-48
2024/04/11 04:03:11;;;;;;;7.97;2.90;;;6.50;99.90;;;;;;5382547;26;19996;-49
2024/04/11 04:05:36;;;;;;;8.68;3.30;;;6.40;99.90;;;;;;5382466;26;20000;-49
2024/04/11 04:08:04;;;;;;;7.13;3.95;;;6.40;99.90;;;;;;5382772;26;20539;-48
2024/04/11 04:10:31;;;;;;;7.43;3.13;;;6.50;99.90;;;;;;5385146;26;20000;-49
2024/04/11 04:12:58;;;;;;;5.07;3.30;;;6.40;99.90;;;;;;5385836;26;19996;-49
2024/04/11 04:15:24;;;;;;;5.82;3.60;;;6.50;99.90;;;;;;5385816;26;20011;-52
2024/04/11 04:17:51;;;;;;;8.68;4.47;;;6.40;99.90;;;;;;5385891;26;19996;-48
2024/04/11 04:20:17;;;;;;;5.10;2.90;;;6.40;99.90;;;;;;5385953;26;20012;-46
2024/04/11 04:22:44;;;;;;;8.43;3.17;;;6.40;99.90;;;;;;5385394;26;19996;-47
2024/04/11 04:25:11;;;;;;;6.47;3.45;;;6.30;99.90;;;;;;5385416;26;20019;-51
2024/04/11 04:27:37;;;;;;;5.38;3.88;;;6.50;99.90;;;;;;5386445;26;20004;-47
2024/04/11 04:30:09;;;;;;;4.15;3.00;;;6.20;99.90;;;;;;5385232;26;20000;-51
2024/04/11 04:32:36;;;;;;;8.70;3.42;;;6.20;99.90;;;;;;5385386;26;20000;-48
2024/04/11 04:35:02;;;;;;;5.78;3.20;;;6.20;99.90;;;;;;5384408;26;20000;-53
2024/04/11 04:37:28;;;;;;;10.35;3.50;;;6.10;99.90;;;;;;5384934;26;20011;-50
2024/04/11 04:39:54;;;;;;;6.63;3.40;;;6.10;99.90;;;;;;5385247;26;20007;-49
2024/04/11 04:42:20;;;;;;;7.70;3.45;;;6.10;99.90;;;;;;5385345;26;20198;-48
2024/04/11 04:44:46;;;;;;;7.85;3.58;;;6.10;99.90;;;;;;5385279;26;20012;-49
2024/04/11 04:47:16;;;;;;;8.07;3.70;;;6.00;99.90;;;;;;5385308;26;20004;-51
2024/04/11 04:49:45;;;;;;;8.23;3.40;;;6.00;99.90;;;;;;5384980;26;20020;-51
2024/04/11 04:52:10;;;;;;;18.80;3.40;;;6.00;99.90;;;;;;5385108;26;20000;-49
2024/04/11 04:54:36;;;;;;;5.07;3.45;;;6.10;99.90;;;;;;5383785;26;20458;-47
2024/04/11 04:57:03;;;;;;;8.18;3.25;;;6.10;99.90;;;;;;5381684;26;20070;-45
2024/04/11 04:59:29;;;;;;;6.95;3.28;;;6.20;99.90;;;;;;5383971;26;20004;-53
2024/04/11 05:01:54;;;;;;;5.53;3.80;;;6.10;99.90;;;;;;5385652;26;19996;-48
2024/04/11 05:04:21;;;;;;;12.90;3.88;;;6.20;99.90;;;;;;5385395;26;20013;-47
2024/04/11 05:06:49;;;;;;;6.63;3.65;;;6.20;99.90;;;;;;5385131;26;20000;-50
2024/04/11 05:09:14;;;;;;;11.48;4.50;;;6.30;99.90;;;;;;5384759;26;20007;-51
2024/04/11 05:11:40;;;;;;;5.03;3.60;;;6.30;99.90;;;;;;5384687;26;20002;-51
2024/04/11 05:14:07;;;;;;;9.43;4.65;;;6.50;99.90;;;;;;5385156;26;20011;-48
2024/04/11 05:16:34;;;;;;;11.68;3.13;;;6.80;99.90;;;;;;5384773;26;20007;-49
2024/04/11 05:18:59;;;;;;;9.18;3.53;;;7.20;99.90;;;;;;5384304;26;20011;-55
2024/04/11 05:21:26;;;;;;;16.15;3.92;;;7.70;99.90;;;;;;5382365;26;20000;-50
2024/04/11 05:23:54;;;;;;;4.75;2.88;;;8.00;99.90;;;;;;5384631;26;19996;-48
2024/04/11 05:26:23;;;;;;;7.30;3.92;;;8.30;99.90;;;;;;5382634;26;19997;-47
2024/04/11 05:28:51;;;;;;;4.45;3.00;;;8.40;99.90;;;;;;5384525;26;20028;-51
2024/04/11 05:31:17;;;;;;;5.05;3.20;;;8.70;99.90;;;;;;5384939;26;19996;-46
2024/04/11 05:33:44;;;;;;;5.55;3.38;;;8.80;99.90;;;;;;5384163;26;20007;-48
2024/04/11 05:36:17;;;;;;;10.07;3.67;;;9.00;99.90;;;;;;5384127;26;20343;-49
2024/04/11 05:38:44;;;;;;;7.32;3.45;;;9.20;99.90;;;;;;5383632;26;20424;-53
2024/04/11 05:41:14;;;;;;;5.13;3.08;;;9.00;99.90;;;;;;5382198;26;20174;-47
2024/04/11 05:43:43;;;;;;;5.85;3.58;;;9.20;99.90;;;;;;5383969;26;20444;-49
2024/04/11 05:46:14;;;;;;;5.95;3.67;;;9.30;99.90;;;;;;5383549;26;20007;-52
2024/04/11 05:48:41;;;;;;;4.45;3.65;;;9.30;99.90;;;;;;5383424;26;20051;-49
2024/04/11 05:51:06;;;;;;;8.40;3.60;;;9.40;99.90;;;;;;5382023;26;20015;-48
2024/04/11 05:53:36;;;;;;;3.30;2.75;;;9.50;99.90;;;;;;5383653;26;19996;-49
2024/04/11 05:56:03;;;;;;;4.05;3.35;;;9.60;99.90;;;;;;5423373;21;20022;-50
2024/04/11 05:58:29;;;;;;;5.78;3.05;;;9.80;99.90;;;;;;5415257;26;20007;-52
2024/04/11 06:00:56;;;;;;;5.75;3.20;;;10.00;99.90;;;;;;5383761;26;20364;-49
2024/04/11 06:03:22;;;;;;;8.57;3.70;;;10.10;99.90;;;;;;5415677;26;19992;-50
2024/04/11 06:05:48;;;;;;;6.38;3.53;;;10.30;99.90;;;;;;5415911;26;20397;-47
2024/04/11 06:08:14;;;;;;;6.50;2.80;;;10.50;99.90;;;;;;5415564;26;20069;-49
2024/04/11 06:10:40;;;;;;;4.72;3.15;;;10.70;99.90;;;;;;5415369;26;19999;-49
2024/04/11 06:13:06;;;;;;;8.80;3.28;;;10.80;99.90;;;;;;5415572;26;19996;-48
2024/04/11 06:15:32;;;;;;;4.90;3.63;;;11.10;99.90;;;;;;5415574;26;19991;-52
2024/04/11 06:17:57;;;;;;;5.25;3.50;;;11.30;99.90;;;;;;5415391;26;20006;-46
2024/04/11 06:20:24;;;;;;;4.93;3.15;;;11.60;99.90;;;;;;5383797;26;19995;-47
2024/04/11 06:22:52;;;;;;;9.75;3.67;;;12.00;99.90;;;;;;5415592;26;19988;-45
2024/04/11 06:25:20;;;;;;;7.57;3.72;;;12.30;99.90;;;;;;5415934;26;19999;-42
2024/04/11 06:27:46;;;;;;;12.10;3.72;;;12.60;99.90;;;;;;5415869;26;20028;-48
2024/04/11 06:30:14;;;;;;;7.40;4.63;;;12.90;99.90;;;;;;5384246;26;20496;-49
2024/04/11 06:32:43;;;;;;;7.65;3.90;;;13.00;99.90;;;;;;5414111;26;19995;-49
2024/04/11 06:35:09;;;;;;;5.95;3.50;;;13.40;99.90;;;;;;5409447;26;20385;-46
2024/04/11 06:37:44;;;;;;;10.93;4.20;;;14.00;99.90;;;;;;5329032;26;20012;-51
2024/04/11 06:40:12;;;;;;;6.17;3.80;;;14.80;99.90;;;;;;5379821;26;20114;-50
2024/04/11 06:42:49;;;;;;;7.40;3.67;;;15.10;99.90;;;;;;5406468;26;20273;-48
2024/04/11 06:45:23;;;;;;;12.27;3.92;;;16.00;99.30;;;;;;5407527;26;20082;-51
2024/04/11 06:47:52;;;;;;;6.10;3.70;;;16.00;99.60;;;;;;5402230;26;20349;-50
2024/04/11 06:50:20;;;;;;;4.40;3.45;;;16.80;98.20;;;;;;5412167;26;20482;-52
2024/04/11 06:52:45;;;;;;;7.45;4.30;;;17.30;97.00;;;;;;5387207;26;20003;-47
2024/04/11 06:55:14;;;;;;;10.15;3.38;;;18.30;95.50;;;;;;5405943;26;20416;-53
2024/04/11 06:57:43;;;;;;;12.43;3.30;;;19.40;93.40;;;;;;5383608;26;20003;-47
2024/04/11 07:00:26;;;;;;;5.20;3.15;;;19.40;93.40;;;;;;5399160;26;20055;-54
2024/04/11 07:02:54;;;;;;;7.20;3.00;;;20.50;91.50;;;;;;5393102;26;20339;-54
2024/04/11 07:05:22;;;;;;;7.57;3.15;;;21.40;89.50;;;;;;5399014;26;20014;-54
2024/04/11 07:07:54;;;;;;;7.13;2.80;;;22.20;86.40;;;;;;5396074;26;20004;-49
2024/04/11 07:10:32;;;;;;;8.55;3.13;;;23.30;82.90;;;;;;5395618;26;20032;-51
2024/04/11 07:12:59;;;;;;;5.32;3.03;;;23.40;78.20;;;;;;5385191;26;19999;-53
2024/04/11 07:15:29;;;;;;;5.85;2.97;;;23.50;79.20;;;;;;5385321;26;20045;-48
2024/04/11 07:17:58;;;;;;;3.30;2.50;;;;;;;;;;5379168;26;20004;-50
2024/04/11 07:20:30;;;;;;;7.85;3.30;;;23.70;76.10;;;;;;5374243;26;20032;-51
2024/04/11 07:22:59;;;;;;;6.03;3.00;;;23.70;75.70;;;;;;5393706;26;20486;-51
2024/04/11 07:25:35;;;;;;;4.90;3.08;;;22.80;76.30;;;;;;5379688;26;20073;-49
2024/04/11 07:28:01;;;;;;;7.40;3.20;;;21.30;80.10;;;;;;5391249;26;20028;-46
2024/04/11 07:30:29;;;;;;;4.65;3.25;;;20.40;83.70;;;;;;5383098;26;20008;-48
2024/04/11 07:32:56;;;;;;;9.68;3.33;;;19.60;86.70;;;;;;5398205;26;20048;-53
2024/04/11 07:35:26;;;;;;;9.23;4.07;;;19.20;87.90;;;;;;5380211;26;20019;-51
2024/04/11 07:37:57;;;;;;;7.05;3.53;;;18.80;89.30;;;;;;5399530;26;20505;-51
2024/04/11 07:40:28;;;;;;;6.25;4.15;;;18.40;90.30;;;;;;5367376;26;20003;-55
2024/04/11 07:43:06;;;;;;;6.10;3.92;;;18.30;90.60;;;;;;5393201;26;20002;-47
2024/04/11 07:45:40;;;;;;;9.07;3.60;;;18.40;91.10;;;;;;5414439;26;20023;-53
2024/04/11 07:48:08;;;;;;;7.60;3.50;;;18.70;91.20;;;;;;5407184;26;20019;-52
2024/04/11 07:50:34;;;;;;;6.90;4.53;;;19.00;90.50;;;;;;5372621;26;20012;-49
2024/04/11 07:53:00;;;;;;;9.88;3.40;;;19.30;90.40;;;;;;5418224;26;19996;-53
2024/04/11 07:55:27;;;;;;;4.78;3.40;;;19.50;89.50;;;;;;5393294;26;20101;-51
2024/04/11 07:57:52;;;;;;;8.50;3.50;;;19.70;90.10;;;;;;5350889;26;20000;-51
2024/04/11 08:00:23;;;;;;;5.00;3.50;;;19.90;90.00;;;;;;5381953;26;20019;-50
2024/04/11 08:02:56;;;;;;;10.05;3.50;;;20.20;89.30;;;;;;5382140;26;19996;-48
2024/04/11 08:05:22;;;;;;;10.75;3.30;;;21.90;86.90;;;;;;5384185;26;20004;-50
2024/04/11 08:07:48;;;;;;;9.75;3.55;;;21.90;86.40;;;;;;5381898;26;19996;-50
2024/04/11 08:10:16;;;;;;;4.93;3.00;;;22.80;83.00;;;;;;5387350;26;20019;-49
2024/04/11 08:12:41;;;;;;;5.07;3.80;;;23.70;80.70;;;;;;5385772;26;20000;-49
2024/04/11 08:15:07;;;;;;;6.70;3.00;;;24.60;79.50;;;;;;5381732;26;20011;-49
2024/04/11 08:17:37;;;;;;;6.43;2.88;;;24.80;76.00;;;;;;5385210;26;20073;-49
2024/04/11 08:20:12;;;;;;;9.35;3.85;;;24.50;76.50;;;;;;5393162;26;20003;-54
2024/04/11 08:22:41;;;;;;;4.90;2.88;;;24.70;75.70;;;;;;5413826;26;20003;-50
2024/04/11 08:25:09;;;;;;;8.98;3.20;;;25.60;74.60;;;;;;5365354;26;20000;-48
2024/04/11 08:27:37;;;;;;;5.30;3.20;;;25.70;73.40;;;;;;5381267;26;20004;-52
2024/04/11 08:30:05;;;;;;;4.25;2.97;;;26.30;71.20;;;;;;5367162;26;20007;-52
2024/04/11 08:32:32;;;;;;;6.63;3.17;;;26.10;71.60;;;;;;5416992;26;19995;-48
2024/04/11 08:35:00;;;;;;;6.50;3.20;;;26.20;72.10;;;;;;5411352;26;20503;-50
2024/04/11 08:37:25;;;;;;;6.65;3.08;;;26.60;70.10;;;;;;5417110;26;20328;-53
2024/04/11 08:39:51;;;;;;;13.30;3.92;;;26.40;71.10;;;;;;5413868;26;20008;-49
2024/04/11 08:42:18;;;;;;;4.80;3.25;;;26.70;71.00;;;;;;5398365;26;20011;-44
2024/04/11 08:44:46;;;;;;;7.68;3.30;;;26.80;69.90;;;;;;5417816;26;20004;-51
2024/04/11 08:47:11;;;;;;;7.07;3.15;;;27.30;68.70;;;;;;5385854;26;20073;-52
2024/04/11 08:49:38;;;;;;;9.70;3.35;;;27.40;66.40;;;;;;5401561;26;20012;-49
2024/04/11 08:52:06;;;;;;;5.80;3.10;;;27.30;65.20;;;;;;5370489;26;19999;-52
2024/04/11 08:54:33;;;;;;;4.45;2.42;;;27.80;66.00;;;;;;5405027;26;20090;-51
2024/04/11 08:56:58;;;;;;;7.25;2.75;;;27.70;64.80;;;;;;5367333;26;20003;-50
2024/04/11 08:59:25;;;;;;;6.90;2.40;;;27.60;63.20;;;;;;5403719;26;19999;-49
2024/04/11 09:01:51;;;;;;;6.45;2.55;;;27.70;64.00;;;;;;5412609;26;20003;-56
2024/04/11 09:04:18;;;;;;;7.97;2.83;;;27.80;63.70;;;;;;5393174;26;20537;-53
2024/04/11 09:06:48;;;;;;;6.70;2.63;;;27.70;63.80;;;;;;5368567;26;19996;-53
2024/04/11 09:09:16;;;;;;;7.63;3.05;;;27.60;64.00;;;;;;5404556;26;20004;-54
2024/04/11 09:11:44;;;;;;;8.25;3.33;;;27.50;63.40;;;;;;5384327;26;20363;-49
2024/04/11 09:14:12;;;;;;;5.20;2.42;;;27.10;63.20;;;;;;5383902;26;20000;-51
2024/04/11 09:16:37;;;;;;;4.60;2.20;;;26.30;64.20;;;;;;5382022;26;20004;-48
2024/04/11 09:19:10;;;;;;;6.75;2.67;;;25.40;64.00;;;;;;5374800;26;20070;-54
2024/04/11 09:21:44;;;;;;;9.07;3.42;;;24.80;65.10;;;;;;5395537;26;20004;-48
2024/04/11 09:24:13;;;;;;;9.80;4.13;;;24.00;67.70;;;;;;5398683;26;19996;-49
2024/04/11 09:26:40;;;;;;;6.03;2.65;;;23.60;67.50;;;;;;5409687;26;20000;-51
2024/04/11 09:29:05;;;;;;;3.97;2.70;;;22.90;68.20;;;;;;5395928;26;20004;-49
2024/04/11 09:31:32;;;;;;;8.52;2.70;;;22.40;68.60;;;;;;5397415;26;20344;-51
2024/04/11 09:33:58;;;;;;;6.43;2.90;;;21.90;70.50;;;;;;5388038;26;20432;-53
2024/04/11 09:36:31;;;;;;;4.93;2.85;;;21.50;71.20;;;;;;5391252;26;20012;-52
2024/04/11 09:39:12;;;;;;;8.30;3.42;;;21.20;72.40;;;;;;5396428;26;20403;-53
2024/04/11 09:41:40;;;;;;;9.45;3.10;;;21.10;74.20;;;;;;5394000;26;20004;-52
2024/04/11 09:44:07;;;;;;;11.27;3.58;;;21.30;73.50;;;;;;5384836;26;20004;-51
2024/04/11 09:46:41;;;;;;;10.02;5.78;;;22.30;73.20;;;;;;5370499;26;20019;-52
2024/04/11 09:49:10;;;;;;;10.75;4.88;;;21.40;71.90;;;;;;5383829;26;20479;-49
2024/04/11 09:51:38;;;;;;;7.45;2.50;;;21.70;72.50;;;;;;5402740;26;20000;-56
2024/04/11 09:54:12;;;;;;;6.53;2.42;;;21.70;71.20;;;;;;5385135;26;20004;-50
2024/04/11 09:56:40;;;;;;;4.15;1.90;;;22.10;71.10;;;;;;5411725;26;20004;-48
2024/04/11 09:59:06;;;;;;;3.90;1.60;;;21.90;70.70;;;;;;5392306;26;20024;-51
2024/04/11 10:01:31;;;;;;;5.95;3.03;;;21.50;68.10;;;;;;5398346;26;20004;-51
2024/04/11 10:04:04;;;;;;;4.00;1.95;;;20.90;68.10;;;;;;5367104;26;20022;-52
2024/04/11 10:06:30;;;;;;;4.93;2.80;;;20.60;69.60;;;;;;5361813;26;20463;-48
2024/04/11 10:09:18;;;;;;;6.40;1.95;;;20.30;72.00;;;;;;5366900;26;20015;-50
2024/04/11 10:11:49;;;;;;;7.40;2.03;;;19.80;70.00;;;;;;5396430;26;20023;-46
2024/04/11 10:14:21;;;;;;;9.45;2.00;;;19.50;70.30;;;;;;5396388;26;20019;-52
2024/04/11 10:16:48;;;;;;;9.27;2.00;;;19.40;72.60;;;;;;5397035;26;20014;-48
2024/04/11 10:19:21;;;;;;;2.63;1.50;;;19.40;72.00;;;;;;5404527;26;20018;-53
2024/04/11 10:21:49;;;;;;;7.63;1.70;;;19.30;70.90;;;;;;5397515;26;20388;-46
2024/04/11 10:24:16;;;;;;;4.35;1.85;;;19.30;72.20;;;;;;5398941;26;20028;-45
2024/04/11 10:26:50;;;;;;;7.38;1.80;;;19.10;73.20;;;;;;5394540;26;20015;-48
2024/04/11 10:29:19;;;;;;;5.88;1.67;;;19.00;72.80;;;;;;5396543;26;19999;-48
2024/04/11 10:31:47;;;;;;;5.38;1.75;;;19.00;72.50;;;;;;5399985;26;20490;-51
2024/04/11 10:34:19;;;;;;;4.32;1.90;;;19.00;72.90;;;;;;5396637;26;20395;-50
2024/04/11 10:36:54;;;;;;;4.38;2.00;;;18.90;71.80;;;;;;5369779;26;20462;-55
2024/04/11 10:39:23;;;;;;;3.42;2.00;;;18.40;71.60;;;;;;5397435;26;20004;-52
2024/04/11 10:41:51;;;;;;;5.40;2.33;;;18.40;72.40;;;;;;5369511;26;20479;-49
2024/04/11 10:44:18;;;;;;;5.43;1.88;;;18.10;74.60;;;;;;5367142;26;19999;-51
2024/04/11 10:46:44;;;;;;;8.40;2.25;;;18.00;76.10;;;;;;5367434;26;20509;-49
2024/04/11 10:49:15;;;;;;;8.07;2.50;;;17.90;74.80;;;;;;5396209;26;20000;-46
2024/04/11 10:51:42;;;;;;;4.55;1.88;;;17.80;76.50;;;;;;5398673;26;20486;-53
2024/04/11 10:54:11;;;;;;;5.55;2.10;;;17.90;76.10;;;;;;5367554;26;20069;-49
2024/04/11 10:56:43;;;;;;;9.35;3.25;;;18.00;77.30;;;;;;5354266;26;20011;-51
2024/04/11 10:59:17;;;;;;;4.18;2.17;;;18.00;75.10;;;;;;5364093;26;20006;-48
2024/04/11 11:02:00;;;;;;;5.47;2.00;;;18.10;75.40;;;;;;5378510;26;20015;-54
2024/04/11 11:04:26;;;;;;;5.03;2.10;;;18.20;76.90;;;;;;5348411;26;20011;-55
2024/04/11 11:06:54;;;;;;;7.18;2.28;;;18.30;76.00;;;;;;5349005;26;19996;-52
2024/04/11 11:09:23;;;;;;;8.93;2.28;;;18.30;75.70;;;;;;5348801;26;20086;-47
2024/04/11 11:11:54;;;;;;;5.72;2.55;;;18.40;76.80;;;;;;5379683;26;19996;-49
2024/04/11 11:14:24;;;;;;;6.47;2.85;;;18.30;76.50;;;;;;5379418;26;20094;-49
2024/04/11 11:16:57;;;;;;;6.47;2.53;;;18.30;77.00;;;;;;5379491;26;19993;-48
2024/04/11 11:19:23;;;;;;;5.38;2.50;;;18.20;78.90;;;;;;5382343;26;19996;-53
2024/04/11 11:21:50;;;;;;;10.90;3.25;;;18.20;79.40;;;;;;5382910;26;20004;-53
2024/04/11 11:24:23;;;;;;;5.25;2.67;;;18.30;79.40;;;;;;5382543;26;20012;-48
2024/04/11 11:26:56;;;;;;;10.32;4.22;;;18.30;77.30;;;;;;5382568;26;20007;-48
2024/04/11 11:29:26;;;;;;;6.25;2.53;;;18.30;78.90;;;;;;5382138;26;20034;-52
2024/04/11 11:32:01;;;;;;;7.78;2.22;;;18.40;79.90;;;;;;5351554;26;20000;-50
2024/04/11 11:34:27;;;;;;;;;;;18.50;80.30;;;;;;5383247;26;20465;-48
2024/04/11 11:36:58;;;;;;;10.73;2.60;;;18.60;79.70;;;;;;5351410;26;19933;-51
2024/04/11 11:39:26;;;;;;;4.38;2.00;;;18.60;79.60;;;;;;5381343;26;20001;-54
2024/04/11 11:42:08;;;;;;;4.35;2.10;;;18.70;78.50;;;;;;5381883;26;20011;-49
2024/04/11 11:44:45;;;;;;;5.38;2.28;;;18.70;78.90;;;;;;5382415;26;20004;-48
2024/04/11 11:47:10;;;;;;;4.53;2.00;;;18.80;77.70;;;;;;5351328;26;20343;-50
2024/04/11 11:49:37;;;;;;;34.60;21.45;;;18.80;79.10;;;;;;5350887;26;20007;-52
2024/04/11 11:52:03;;;;;;;14.27;9.15;;;18.80;79.40;;;;;;5382043;26;19996;-52
2024/04/11 11:54:34;;;;;;;9.10;2.58;;;18.60;76.90;;;;;;5382709;26;20000;-52
2024/04/11 11:57:09;;;;;;;3.08;1.70;;;18.50;77.30;;;;;;5410884;21;20000;-47
2024/04/11 11:59:35;;;;;;;8.00;2.25;;;18.60;78.30;;;;;;5348604;26;20024;-52
2024/04/11 12:02:01;;;;;;;8.05;2.22;;;18.60;78.90;;;;;;5382133;26;20064;-48
2024/04/11 12:04:30;;;;;;;4.70;2.50;;;18.70;78.60;;;;;;5380026;26;19996;-49
2024/04/11 12:06:56;;;;;;;9.63;2.78;;;18.80;79.50;;;;;;5350838;26;19996;-49
2024/04/11 12:09:31;;;;;;;10.23;2.33;;;18.80;78.20;;;;;;5381484;26;20447;-49
2024/04/11 12:12:40;;;;;;;6.53;2.15;;;18.70;78.30;;;;;;5350898;26;20003;-49
2024/04/11 12:14:45;;;;;;;7.00;2.78;;;18.60;78.70;;;;;;5371848;26;20517;-47
2024/04/11 12:17:14;;;;;;;4.53;2.35;;;18.70;79.50;;;;;;5381709;26;20000;-48
2024/04/11 12:19:41;;;;;;;7.70;2.20;;;18.70;78.60;;;;;;5350360;26;20038;-48
2024/04/11 12:22:16;;;;;;;4.68;2.58;;;18.90;79.50;;;;;;5350745;26;20004;-48
2024/04/11 12:24:45;;;;;;;6.60;2.63;;;18.80;78.50;;;;;;5381771;26;20533;-52
2024/04/11 12:27:13;;;;;;;7.90;2.22;;;18.80;78.00;;;;;;5382248;26;20328;-48
2024/04/11 12:29:40;;;;;;;5.60;2.38;;;18.70;77.80;;;;;;5380781;26;20343;-47
2024/04/11 12:32:07;;;;;;;6.95;2.63;;;18.80;80.00;;;;;;5350695;26;20004;-50
2024/04/11 12:34:33;;;;;;;8.15;2.53;;;18.60;80.10;;;;;;5381535;26;19996;-47
2024/04/11 12:37:08;;;;;;;6.75;2.33;;;18.70;79.90;;;;;;5349930;26;19996;-48
2024/04/11 12:39:41;;;;;;;6.60;1.70;;;18.70;80.70;;;;;;5380919;26;20024;-52
2024/04/11 12:42:14;;;;;;;9.10;2.38;;;18.80;78.30;;;;;;5350645;26;20011;-47
2024/04/11 12:44:39;;;;;;;5.85;2.10;;;18.80;77.80;;;;;;5350817;26;20064;-49
2024/04/11 12:47:13;;;;;;;5.47;2.17;;;18.70;77.90;;;;;;5380821;26;20008;-47
2024/04/11 12:49:48;;;;;;;8.32;2.03;;;18.70;79.40;;;;;;5349678;26;20003;-48
2024/04/11 12:52:22;;;;;;;6.00;2.15;;;18.80;79.40;;;;;;5350139;26;19996;-47
2024/04/11 12:55:00;;;;;;;4.57;2.40;;;18.90;79.90;;;;;;5381003;26;20471;-52